TimeMDT,TemperatureF,Dew PointF,Humidity,Sea Level PressureIn,VisibilityMPH,Wind Direction,Wind SpeedMPH,Gust SpeedMPH,PrecipitationIn,Events,Conditions,WindDirDegrees,DateUTC
12:58 AM,77.4,61.3,58,29.90,10.0,NE,6.9,-,N/A,,Overcast,40,2013-08-26 06:58:00
1:58 AM,74.8,61.2,62,29.88,10.0,North,4.6,-,N/A,,Mostly Cloudy,360,2013-08-26 07:58:00
2:58 AM,72.0,61.9,70,29.87,10.0,NW,4.6,-,N/A,,Overcast,310,2013-08-26 08:58:00
3:58 AM,71.4,61.9,72,29.86,10.0,Variable,2.3,-,N/A,,Overcast,0,2013-08-26 09:58:00
4:58 AM,69.6,61.0,74,29.88,10.0,NNW,3.5,-,N/A,,Partly Cloudy,330,2013-08-26 10:58:00
5:58 AM,70.3,60.8,72,29.88,10.0,NW,6.9,-,N/A,,Clear,320,2013-08-26 11:58:00
6:58 AM,71.6,60.8,69,29.90,10.0,WNW,6.9,-,N/A,,Clear,290,2013-08-26 12:58:00
7:58 AM,77.2,59.9,55,29.89,10.0,WSW,6.9,-,N/A,,Scattered Clouds,250,2013-08-26 13:58:00
8:58 AM,82.8,57.7,42,29.89,10.0,West,6.9,-,N/A,,Mostly Cloudy,260,2013-08-26 14:58:00
9:58 AM,89.1,53.8,30,29.88,10.0,WNW,6.9,-,N/A,,Partly Cloudy,300,2013-08-26 15:58:00
10:58 AM,90.1,54.7,30,29.87,10.0,West,15.0,-,N/A,,Partly Cloudy,260,2013-08-26 16:58:00
11:58 AM,91.4,54.7,29,29.87,10.0,WSW,3.5,-,N/A,,Clear,240,2013-08-26 17:58:00
12:58 PM,92.8,54.0,27,29.85,10.0,SSW,6.9,-,N/A,,Clear,210,2013-08-26 18:58:00
1:58 PM,95.2,51.1,22,29.83,10.0,SW,6.9,-,N/A,,Clear,230,2013-08-26 19:58:00
2:58 PM,95.0,51.6,23,29.83,10.0,SSW,9.2,-,N/A,,Clear,210,2013-08-26 20:58:00
3:58 PM,95.7,51.3,22,29.83,10.0,WSW,4.6,-,N/A,,Clear,250,2013-08-26 21:58:00
4:58 PM,95.5,49.8,21,29.83,10.0,South,5.8,-,N/A,,Clear,190,2013-08-26 22:58:00
5:58 PM,93.0,55.4,28,29.83,10.0,ENE,8.1,-,N/A,,Clear,70,2013-08-26 23:58:00
6:58 PM,91.9,54.9,28,29.83,10.0,NNE,12.7,-,N/A,,Mostly Cloudy,20,2013-08-27 00:58:00
7:58 PM,87.1,54.5,33,29.84,10.0,NNE,6.9,-,N/A,,Clear,30,2013-08-27 01:58:00
8:58 PM,85.1,54.1,34,29.86,10.0,NE,4.6,-,N/A,,Clear,40,2013-08-27 02:58:00
9:58 PM,76.6,55.4,48,29.87,10.0,West,4.6,-,N/A,,Clear,280,2013-08-27 03:58:00
10:58 PM,79.2,62.1,56,29.88,10.0,NNE,3.5,-,N/A,,Clear,20,2013-08-27 04:58:00
11:58 PM,73.2,60.4,64,29.88,10.0,WNW,4.6,-,N/A,,Clear,300,2013-08-27 05:58:00